sensor_id;sensor_type;location;lat;lon;timestamp;P1;durP1;ratioP1;P2;durP2;ratioP2
31087;SDS011;17745;55.914;37.554;2023-04-25T00:01:04;17.98;;;7.30;;
31087;SDS011;17745;55.914;37.554;2023-04-25T00:07:03;25.83;;;8.57;;
31087;SDS011;17745;55.914;37.554;2023-04-25T00:10:07;34.83;;;10.30;;
31087;SDS011;17745;55.914;37.554;2023-04-25T00:13:54;37.30;;;9.80;;
31087;SDS011;17745;55.914;37.554;2023-04-25T00:17:23;21.42;;;9.40;;
31087;SDS011;17745;55.914;37.554;2023-04-25T00:20:27;22.95;;;8.95;;
31087;SDS011;17745;55.914;37.554;2023-04-25T00:23:11;25.10;;;8.63;;
31087;SDS011;17745;55.914;37.554;2023-04-25T00:26:12;25.48;;;9.23;;
31087;SDS011;17745;55.914;37.554;2023-04-25T00:32:11;30.55;;;9.18;;
31087;SDS011;17745;55.914;37.554;2023-04-25T03:26:51;28.65;;;9.68;;
31087;SDS011;17745;55.914;37.554;2023-04-25T03:29:35;29.83;;;9.73;;
31087;SDS011;17745;55.914;37.554;2023-04-25T03:32:43;29.60;;;9.80;;
31087;SDS011;17745;55.914;37.554;2023-04-25T03:35:47;26.00;;;9.50;;
31087;SDS011;17745;55.914;37.554;2023-04-25T03:39:02;31.25;;;8.68;;
31087;SDS011;17745;55.914;37.554;2023-04-25T03:52:24;23.98;;;8.57;;
31087;SDS011;17745;55.914;37.554;2023-04-25T03:55:37;36.88;;;9.48;;
31087;SDS011;17745;55.914;37.554;2023-04-25T03:59:07;28.87;;;9.80;;
31087;SDS011;17745;55.914;37.554;2023-04-25T04:02:38;19.92;;;9.98;;
31087;SDS011;17745;55.914;37.554;2023-04-25T04:16:31;20.75;;;8.38;;
31087;SDS011;17745;55.914;37.554;2023-04-25T04:19:59;28.17;;;9.00;;
31087;SDS011;17745;55.914;37.554;2023-04-25T04:23:17;23.65;;;10.50;;
31087;SDS011;17745;55.914;37.554;2023-04-25T04:26:24;25.62;;;11.55;;
31087;SDS011;17745;55.914;37.554;2023-04-25T04:49:01;22.25;;;10.35;;
31087;SDS011;17745;55.914;37.554;2023-04-25T05:00:42;22.25;;;9.30;;
31087;SDS011;17745;55.914;37.554;2023-04-25T05:24:54;20.73;;;9.32;;
31087;SDS011;17745;55.914;37.554;2023-04-25T05:30:30;19.80;;;9.90;;
31087;SDS011;17745;55.914;37.554;2023-04-25T05:43:14;25.33;;;10.18;;
31087;SDS011;17745;55.914;37.554;2023-04-25T05:53:51;22.33;;;10.73;;
31087;SDS011;17745;55.914;37.554;2023-04-25T06:24:38;23.77;;;6.97;;
31087;SDS011;17745;55.914;37.554;2023-04-25T06:27:59;28.12;;;7.78;;
31087;SDS011;17745;55.914;37.554;2023-04-25T06:31:27;19.73;;;7.25;;
31087;SDS011;17745;55.914;37.554;2023-04-25T06:34:49;15.05;;;6.20;;
31087;SDS011;17745;55.914;37.554;2023-04-25T09:05:30;15.95;;;5.15;;
31087;SDS011;17745;55.914;37.554;2023-04-25T09:09:08;12.45;;;5.87;;
31087;SDS011;17745;55.914;37.554;2023-04-25T09:13:01;15.55;;;5.25;;
31087;SDS011;17745;55.914;37.554;2023-04-25T15:17:12;9.50;;;4.25;;
31087;SDS011;17745;55.914;37.554;2023-04-25T15:20:04;9.38;;;4.47;;
31087;SDS011;17745;55.914;37.554;2023-04-25T15:26:54;13.00;;;3.72;;
31087;SDS011;17745;55.914;37.554;2023-04-25T17:14:30;9.05;;;4.72;;
31087;SDS011;17745;55.914;37.554;2023-04-25T17:17:59;12.60;;;4.90;;
31087;SDS011;17745;55.914;37.554;2023-04-25T17:21:12;15.70;;;5.20;;
31087;SDS011;17745;55.914;37.554;2023-04-25T18:28:59;9.05;;;3.50;;
31087;SDS011;17745;55.914;37.554;2023-04-25T18:31:36;7.60;;;4.05;;
31087;SDS011;17745;55.914;37.554;2023-04-25T18:34:08;12.80;;;4.43;;
31087;SDS011;17745;55.914;37.554;2023-04-25T18:36:42;9.18;;;4.10;;
31087;SDS011;17745;55.914;37.554;2023-04-25T18:39:48;7.40;;;3.87;;
31087;SDS011;17745;55.914;37.554;2023-04-25T18:43:13;14.25;;;4.93;;
31087;SDS011;17745;55.914;37.554;2023-04-25T18:49:45;12.18;;;4.85;;
31087;SDS011;17745;55.914;37.554;2023-04-25T18:52:49;9.95;;;4.25;;
31087;SDS011;17745;55.914;37.554;2023-04-25T18:55:39;14.40;;;4.72;;
31087;SDS011;17745;55.914;37.554;2023-04-25T18:58:32;9.48;;;3.75;;
31087;SDS011;17745;55.914;37.554;2023-04-25T19:01:07;11.55;;;4.43;;
31087;SDS011;17745;55.914;37.554;2023-04-25T19:03:52;12.98;;;4.75;;
31087;SDS011;17745;55.914;37.554;2023-04-25T19:10:39;8.35;;;4.07;;
31087;SDS011;17745;55.914;37.554;2023-04-25T19:17:07;11.75;;;5.70;;
31087;SDS011;17745;55.914;37.554;2023-04-25T19:30:28;10.13;;;4.03;;
31087;SDS011;17745;55.914;37.554;2023-04-25T19:33:53;8.35;;;3.90;;
31087;SDS011;17745;55.914;37.554;2023-04-25T19:37:13;10.27;;;4.55;;
31087;SDS011;17745;55.914;37.554;2023-04-25T19:40:17;10.13;;;4.40;;
31087;SDS011;17745;55.914;37.554;2023-04-25T19:42:54;11.80;;;4.40;;
31087;SDS011;17745;55.914;37.554;2023-04-25T19:45:28;36.03;;;6.75;;
31087;SDS011;17745;55.914;37.554;2023-04-25T19:48:07;14.25;;;6.18;;
31087;SDS011;17745;55.914;37.554;2023-04-25T19:51:01;9.30;;;5.12;;
31087;SDS011;17745;55.914;37.554;2023-04-25T19:53:57;14.75;;;4.72;;
31087;SDS011;17745;55.914;37.554;2023-04-25T19:56:33;14.23;;;4.85;;
31087;SDS011;17745;55.914;37.554;2023-04-25T19:59:13;14.05;;;4.85;;
31087;SDS011;17745;55.914;37.554;2023-04-25T20:01:47;9.00;;;4.50;;
31087;SDS011;17745;55.914;37.554;2023-04-25T20:04:28;14.70;;;4.50;;
31087;SDS011;17745;55.914;37.554;2023-04-25T20:07:09;7.15;;;4.03;;
31087;SDS011;17745;55.914;37.554;2023-04-25T20:09:55;8.80;;;4.03;;
31087;SDS011;17745;55.914;37.554;2023-04-25T20:12:37;10.23;;;4.07;;
31087;SDS011;17745;55.914;37.554;2023-04-25T20:15:23;8.52;;;3.90;;
31087;SDS011;17745;55.914;37.554;2023-04-25T20:18:03;8.07;;;3.90;;
31087;SDS011;17745;55.914;37.554;2023-04-25T20:20:45;11.40;;;3.90;;
31087;SDS011;17745;55.914;37.554;2023-04-25T20:23:21;12.52;;;4.30;;
31087;SDS011;17745;55.914;37.554;2023-04-25T20:25:54;9.35;;;3.75;;
31087;SDS011;17745;55.914;37.554;2023-04-25T20:28:35;7.60;;;3.70;;
31087;SDS011;17745;55.914;37.554;2023-04-25T20:32:00;9.82;;;3.87;;
31087;SDS011;17745;55.914;37.554;2023-04-25T20:34:38;7.45;;;4.28;;
31087;SDS011;17745;55.914;37.554;2023-04-25T20:48:03;8.20;;;3.28;;
31087;SDS011;17745;55.914;37.554;2023-04-25T20:50:36;14.32;;;4.32;;
31087;SDS011;17745;55.914;37.554;2023-04-25T20:53:06;14.35;;;4.72;;
31087;SDS011;17745;55.914;37.554;2023-04-25T20:55:43;6.78;;;3.87;;
31087;SDS011;17745;55.914;37.554;2023-04-25T20:58:25;9.50;;;4.18;;
31087;SDS011;17745;55.914;37.554;2023-04-25T21:01:03;10.13;;;3.92;;
31087;SDS011;17745;55.914;37.554;2023-04-25T21:03:41;9.18;;;3.97;;
31087;SDS011;17745;55.914;37.554;2023-04-25T21:06:22;7.07;;;4.03;;
31087;SDS011;17745;55.914;37.554;2023-04-25T21:09:12;7.20;;;3.90;;
31087;SDS011;17745;55.914;37.554;2023-04-25T21:11:49;8.57;;;4.07;;
31087;SDS011;17745;55.914;37.554;2023-04-25T21:14:26;11.07;;;4.62;;
31087;SDS011;17745;55.914;37.554;2023-04-25T21:17:06;10.13;;;3.90;;
31087;SDS011;17745;55.914;37.554;2023-04-25T21:19:54;7.40;;;3.42;;
31087;SDS011;17745;55.914;37.554;2023-04-25T21:22:38;7.75;;;4.00;;
31087;SDS011;17745;55.914;37.554;2023-04-25T21:25:22;12.63;;;3.75;;
31087;SDS011;17745;55.914;37.554;2023-04-25T21:27:59;7.45;;;3.60;;
31087;SDS011;17745;55.914;37.554;2023-04-25T21:30:32;10.38;;;4.75;;
31087;SDS011;17745;55.914;37.554;2023-04-25T21:33:14;13.73;;;4.00;;
31087;SDS011;17745;55.914;37.554;2023-04-25T21:35:50;9.45;;;3.67;;
31087;SDS011;17745;55.914;37.554;2023-04-25T21:38:28;10.00;;;3.83;;
31087;SDS011;17745;55.914;37.554;2023-04-25T21:41:00;8.93;;;4.20;;
31087;SDS011;17745;55.914;37.554;2023-04-25T21:43:47;6.87;;;3.90;;
31087;SDS011;17745;55.914;37.554;2023-04-25T21:46:25;7.97;;;3.92;;
31087;SDS011;17745;55.914;37.554;2023-04-25T21:49:02;8.27;;;4.12;;
31087;SDS011;17745;55.914;37.554;2023-04-25T21:51:44;8.75;;;4.93;;
31087;SDS011;17745;55.914;37.554;2023-04-25T21:54:26;10.73;;;3.83;;
31087;SDS011;17745;55.914;37.554;2023-04-25T21:57:05;9.10;;;4.37;;
31087;SDS011;17745;55.914;37.554;2023-04-25T21:59:59;6.10;;;3.67;;
31087;SDS011;17745;55.914;37.554;2023-04-25T22:03:10;8.75;;;4.57;;
31087;SDS011;17745;55.914;37.554;2023-04-25T22:06:04;6.43;;;3.67;;
31087;SDS011;17745;55.914;37.554;2023-04-25T22:41:11;8.68;;;4.68;;
31087;SDS011;17745;55.914;37.554;2023-04-25T22:43:41;9.85;;;4.93;;
31087;SDS011;17745;55.914;37.554;2023-04-25T22:46:14;10.32;;;4.90;;
31087;SDS011;17745;55.914;37.554;2023-04-25T22:51:51;10.50;;;5.37;;
31087;SDS011;17745;55.914;37.554;2023-04-25T22:54:21;13.68;;;5.57;;
31087;SDS011;17745;55.914;37.554;2023-04-25T22:56:52;12.32;;;5.10;;
31087;SDS011;17745;55.914;37.554;2023-04-25T22:59:21;9.02;;;5.32;;
31087;SDS011;17745;55.914;37.554;2023-04-25T23:01:49;8.23;;;5.28;;
31087;SDS011;17745;55.914;37.554;2023-04-25T23:04:19;8.77;;;5.30;;
31087;SDS011;17745;55.914;37.554;2023-04-25T23:07:05;8.23;;;5.40;;
31087;SDS011;17745;55.914;37.554;2023-04-25T23:09:36;9.57;;;5.87;;
31087;SDS011;17745;55.914;37.554;2023-04-25T23:12:08;8.52;;;5.30;;
31087;SDS011;17745;55.914;37.554;2023-04-25T23:14:36;9.93;;;5.00;;
31087;SDS011;17745;55.914;37.554;2023-04-25T23:17:06;10.77;;;5.72;;
31087;SDS011;17745;55.914;37.554;2023-04-25T23:19:35;8.82;;;5.20;;
31087;SDS011;17745;55.914;37.554;2023-04-25T23:25:00;11.82;;;5.53;;
31087;SDS011;17745;55.914;37.554;2023-04-25T23:27:33;7.47;;;5.43;;
31087;SDS011;17745;55.914;37.554;2023-04-25T23:30:02;9.20;;;5.85;;
31087;SDS011;17745;55.914;37.554;2023-04-25T23:32:34;9.00;;;5.45;;
31087;SDS011;17745;55.914;37.554;2023-04-25T23:35:07;9.40;;;5.43;;
31087;SDS011;17745;55.914;37.554;2023-04-25T23:37:36;7.72;;;5.78;;
31087;SDS011;17745;55.914;37.554;2023-04-25T23:43:31;10.80;;;5.75;;
31087;SDS011;17745;55.914;37.554;2023-04-25T23:46:09;9.43;;;5.50;;
31087;SDS011;17745;55.914;37.554;2023-04-25T23:48:39;8.82;;;5.90;;
31087;SDS011;17745;55.914;37.554;2023-04-25T23:51:10;11.23;;;5.53;;
31087;SDS011;17745;55.914;37.554;2023-04-25T23:53:45;9.50;;;5.57;;
31087;SDS011;17745;55.914;37.554;2023-04-25T23:56:17;8.65;;;5.70;;
31087;SDS011;17745;55.914;37.554;2023-04-25T23:58:52;9.45;;;5.70;;
